createdAt,value
2018-09-05T00:01:43.278Z,25.30
2018-09-05T00:04:11.217Z,26.13
2018-09-05T00:06:39.311Z,25.33
2018-09-05T00:09:08.300Z,23.67
2018-09-05T00:11:36.831Z,24.90
2018-09-05T00:14:04.967Z,24.17
2018-09-05T00:16:32.902Z,25.70
2018-09-05T00:19:00.826Z,25.47
2018-09-05T00:21:28.813Z,25.03
2018-09-05T00:23:56.958Z,23.83
2018-09-05T00:26:25.048Z,23.90
2018-09-05T00:28:53.035Z,23.53
2018-09-05T00:31:21.149Z,24.73
2018-09-05T00:33:49.380Z,23.50
2018-09-05T00:36:17.332Z,24.37
2018-09-05T00:38:45.329Z,24.20
2018-09-05T00:41:13.322Z,24.17
2018-09-05T00:43:41.315Z,25.83
2018-09-05T00:46:09.313Z,22.77
2018-09-05T00:48:37.336Z,24.10
2018-09-05T00:51:05.536Z,23.57
2018-09-05T00:53:33.322Z,23.50
2018-09-05T00:56:01.302Z,23.63
2018-09-05T00:58:29.188Z,23.17
2018-09-05T01:00:57.081Z,23.20
2018-09-05T01:03:24.979Z,24.17
2018-09-05T01:05:52.914Z,23.90
2018-09-05T01:08:20.913Z,23.83
2018-09-05T01:10:48.972Z,24.40
2018-09-05T01:13:16.866Z,23.07
2018-09-05T01:15:44.873Z,23.97
2018-09-05T01:18:12.774Z,25.73
2018-09-05T01:20:40.819Z,25.87
2018-09-05T01:23:08.732Z,23.30
2018-09-05T01:25:36.714Z,22.47
2018-09-05T01:28:04.853Z,22.63
2018-09-05T01:30:32.799Z,22.77
2018-09-05T01:33:00.725Z,23.57
2018-09-05T01:35:28.752Z,23.73
2018-09-05T01:37:56.924Z,23.87
2018-09-05T01:40:25.504Z,24.83
2018-09-05T01:42:53.906Z,23.83
2018-09-05T01:45:21.873Z,23.57
2018-09-05T01:47:49.776Z,23.43
2018-09-05T01:50:20.332Z,23.37
2018-09-05T01:52:48.232Z,23.90
2018-09-05T01:55:16.174Z,24.17
2018-09-05T01:57:44.093Z,24.97
2018-09-05T02:00:16.638Z,24.10
2018-09-05T02:02:44.645Z,24.20
2018-09-05T02:05:12.679Z,24.77
2018-09-05T02:07:41.019Z,21.70
2018-09-05T02:10:09.032Z,23.57
2018-09-05T02:12:37.029Z,23.90
2018-09-05T02:15:05.004Z,27.93
2018-09-05T02:17:33.053Z,25.00
2018-09-05T02:20:01.059Z,22.90
2018-09-05T02:22:29.048Z,23.20
2018-09-05T02:24:57.005Z,22.80
2018-09-05T02:27:24.924Z,22.50
2018-09-05T02:29:52.937Z,22.43
2018-09-05T02:32:21.044Z,23.10
2018-09-05T02:34:48.910Z,23.83
2018-09-05T02:37:17.056Z,21.27
2018-09-05T02:39:45.111Z,21.50
2018-09-05T02:42:13.045Z,22.60
2018-09-05T02:44:41.066Z,21.93
2018-09-05T02:47:08.992Z,22.70
2018-09-05T02:49:36.911Z,22.57
2018-09-05T02:52:05.293Z,20.70
2018-09-05T02:54:33.241Z,20.90
2018-09-05T02:57:01.193Z,21.73
2018-09-05T02:59:29.142Z,22.00
2018-09-05T03:01:57.105Z,21.80
2018-09-05T03:04:25.021Z,21.73
2018-09-05T03:06:52.945Z,20.33
2018-09-05T03:09:20.936Z,22.47
2018-09-05T03:11:48.847Z,21.70
2018-09-05T03:14:16.774Z,21.70
2018-09-05T03:16:44.725Z,21.33
2018-09-05T03:19:12.712Z,21.97
2018-09-05T03:21:40.690Z,21.83
2018-09-05T03:24:08.609Z,22.33
2018-09-05T03:26:36.572Z,21.50
2018-09-05T03:29:04.697Z,21.70
2018-09-05T03:31:32.696Z,20.23
2018-09-05T03:34:00.722Z,21.37
2018-09-05T03:36:28.780Z,21.60
2018-09-05T03:38:56.716Z,21.67
2018-09-05T03:41:24.690Z,21.17
2018-09-05T03:43:52.608Z,20.27
2018-09-05T03:46:20.466Z,21.03
2018-09-05T03:48:48.589Z,22.07
2018-09-05T03:51:16.560Z,22.20
2018-09-05T03:53:44.473Z,22.33
2018-09-05T03:56:12.419Z,24.07
2018-09-05T03:58:40.388Z,21.23
2018-09-05T04:01:08.376Z,19.50
2018-09-05T04:03:36.447Z,19.43
2018-09-05T04:06:04.698Z,20.03
2018-09-05T04:08:32.682Z,19.90
2018-09-05T04:11:00.606Z,22.63
2018-09-05T04:13:28.565Z,20.73
2018-09-05T04:15:56.540Z,20.60
2018-09-05T04:18:24.644Z,21.47
2018-09-05T04:20:52.629Z,20.10
2018-09-05T04:23:20.496Z,18.97
2018-09-05T04:25:48.635Z,20.90
2018-09-05T04:28:16.594Z,19.43
2018-09-05T04:30:45.131Z,18.83
2018-09-05T04:33:13.119Z,19.77
2018-09-05T04:35:41.091Z,19.20
2018-09-05T04:38:09.177Z,19.17
2018-09-05T04:40:37.256Z,19.77
2018-09-05T04:43:05.805Z,19.53
2018-09-05T04:45:33.748Z,19.10
2018-09-05T04:48:01.812Z,20.93
2018-09-05T04:50:29.822Z,20.07
2018-09-05T04:52:57.777Z,18.63
2018-09-05T04:55:25.696Z,20.83
2018-09-05T04:57:53.747Z,20.07
2018-09-05T05:00:21.621Z,19.10
2018-09-05T05:02:49.595Z,18.73
2018-09-05T05:05:17.647Z,19.50
2018-09-05T05:07:45.572Z,19.10
2018-09-05T05:10:13.501Z,21.73
2018-09-05T05:12:41.518Z,20.37
2018-09-05T05:15:09.537Z,19.70
2018-09-05T05:17:37.484Z,18.97
2018-09-05T05:20:05.533Z,20.57
2018-09-05T05:22:33.543Z,21.07
2018-09-05T05:25:01.914Z,17.93
2018-09-05T05:27:29.954Z,18.43
2018-09-05T05:29:57.945Z,17.67
2018-09-05T05:32:25.966Z,17.33
2018-09-05T05:34:54.274Z,18.37
2018-09-05T05:37:22.493Z,18.77
2018-09-05T05:39:50.371Z,21.00
2018-09-05T05:42:18.385Z,16.63
2018-09-05T05:44:46.355Z,17.63
2018-09-05T05:47:14.268Z,19.47
2018-09-05T05:49:42.229Z,19.47
2018-09-05T05:52:10.205Z,17.27
2018-09-05T05:54:38.168Z,17.03
2018-09-05T05:57:06.214Z,17.60
2018-09-05T05:59:34.191Z,17.40
2018-09-05T06:02:02.074Z,17.10
2018-09-05T06:04:30.085Z,17.87
2018-09-05T06:06:58.047Z,17.40
2018-09-05T06:09:26.063Z,17.60
2018-09-05T06:11:54.619Z,16.97
2018-09-05T06:14:22.582Z,16.87
2018-09-05T06:16:50.687Z,14.83
2018-09-05T06:19:18.728Z,14.33
2018-09-05T06:21:46.889Z,17.17
2018-09-05T06:24:14.934Z,16.57
2018-09-05T06:26:43.005Z,15.63
2018-09-05T06:29:11.143Z,19.40
2018-09-05T06:31:39.090Z,15.20
2018-09-05T06:34:07.079Z,16.10
2018-09-05T06:36:35.150Z,15.07
2018-09-05T06:39:03.985Z,20.53
2018-09-05T06:41:31.846Z,15.60
2018-09-05T06:43:59.700Z,16.20
2018-09-05T06:46:27.670Z,17.67
2018-09-05T06:48:55.624Z,16.13
2018-09-05T06:51:24.470Z,16.03
2018-09-05T06:53:52.284Z,18.10
2018-09-05T06:56:20.371Z,18.10
2018-09-05T06:58:48.472Z,17.13
2018-09-05T07:01:16.760Z,18.63
2018-09-05T07:03:44.876Z,19.60
2018-09-05T07:06:12.832Z,20.10
2018-09-05T07:08:40.954Z,19.63
2018-09-05T07:11:08.900Z,19.03
2018-09-05T07:13:36.838Z,18.80
2018-09-05T07:16:04.809Z,18.20
2018-09-05T07:18:32.918Z,20.47
2018-09-05T07:21:05.688Z,21.30
2018-09-05T07:23:28.897Z,19.43
2018-09-05T07:25:56.908Z,18.87
2018-09-05T07:28:24.924Z,18.57
2018-09-05T07:30:53.080Z,20.50
2018-09-05T07:33:21.098Z,19.47
2018-09-05T07:35:49.201Z,20.23
2018-09-05T07:38:17.159Z,19.37
2018-09-05T07:40:45.198Z,18.80
2018-09-05T07:43:13.189Z,19.30
2018-09-05T07:45:41.149Z,19.30
2018-09-05T07:48:09.258Z,20.43
2018-09-05T07:50:37.201Z,19.43
2018-09-05T07:53:05.309Z,20.00
2018-09-05T07:55:33.432Z,19.63
2018-09-05T07:58:01.565Z,21.27
2018-09-05T08:00:29.601Z,22.10
2018-09-05T08:02:57.525Z,19.77
2018-09-05T08:05:26.061Z,19.97
2018-09-05T08:07:54.150Z,18.30
2018-09-05T08:10:22.149Z,20.53
2018-09-05T08:12:50.203Z,21.07
2018-09-05T08:15:18.238Z,19.70
2018-09-05T08:17:46.391Z,19.77
2018-09-05T08:20:14.481Z,19.77
2018-09-05T08:22:43.119Z,19.77
2018-09-05T08:25:11.164Z,19.60
2018-09-05T08:27:39.237Z,19.83
2018-09-05T08:30:07.321Z,19.47
2018-09-05T08:32:35.231Z,21.13
2018-09-05T08:35:03.401Z,20.17
2018-09-05T08:37:31.496Z,19.67
2018-09-05T08:39:59.299Z,20.20
2018-09-05T08:42:31.815Z,22.23
2018-09-05T08:45:00.589Z,21.40
2018-09-05T08:47:28.647Z,21.67
2018-09-05T08:49:57.112Z,22.63
2018-09-05T08:52:25.271Z,24.83
2018-09-05T08:54:53.325Z,23.50
2018-09-05T08:57:21.409Z,27.23
2018-09-05T08:59:49.493Z,22.27
2018-09-05T09:02:17.580Z,27.03
2018-09-05T09:04:45.748Z,23.93
2018-09-05T09:07:14.045Z,23.33
2018-09-05T09:09:42.101Z,22.57
2018-09-05T09:12:10.063Z,20.90
2018-09-05T09:14:38.055Z,20.90
2018-09-05T09:17:06.177Z,22.60
2018-09-05T09:19:34.371Z,20.33
2018-09-05T09:22:02.375Z,19.53
2018-09-05T09:24:30.503Z,21.07
2018-09-05T09:26:58.873Z,20.97
2018-09-05T09:29:26.947Z,20.63
2018-09-05T09:31:55.073Z,18.93
2018-09-05T09:34:23.156Z,19.07
2018-09-05T09:36:51.224Z,19.10
2018-09-05T09:39:19.186Z,17.43
2018-09-05T09:41:47.094Z,22.53
2018-09-05T09:44:15.069Z,21.50
2018-09-05T09:46:43.006Z,20.87
2018-09-05T09:49:11.123Z,17.47
2018-09-05T09:51:40.208Z,19.17
2018-09-05T09:54:08.202Z,19.00
2018-09-05T09:56:36.268Z,16.77
2018-09-05T09:59:04.407Z,17.43
2018-09-05T10:01:37.808Z,16.57
2018-09-05T10:04:11.291Z,16.20
2018-09-05T10:06:41.489Z,16.27
2018-09-05T10:09:14.952Z,16.17
2018-09-05T10:11:48.630Z,14.63
2018-09-05T10:14:22.162Z,14.83
2018-09-05T10:16:55.909Z,14.90
2018-09-05T10:19:23.806Z,14.67
2018-09-05T10:21:53.767Z,14.17
2018-09-05T10:24:22.019Z,15.37
2018-09-05T10:26:50.575Z,14.23
2018-09-05T10:29:18.792Z,16.37
2018-09-05T10:31:47.183Z,15.60
2018-09-05T10:34:15.185Z,12.80
2018-09-05T10:36:43.173Z,13.87
2018-09-05T10:39:11.942Z,15.10
2018-09-05T10:41:40.343Z,14.10
2018-09-05T10:44:08.934Z,14.50
2018-09-05T10:46:37.382Z,17.83
2018-09-05T10:49:05.813Z,14.57
2018-09-05T10:51:39.503Z,14.30
2018-09-05T10:54:07.866Z,12.60
2018-09-05T10:56:35.896Z,14.07
2018-09-05T10:59:03.999Z,11.33
2018-09-05T11:01:32.392Z,11.30
2018-09-05T11:04:00.393Z,10.60
2018-09-05T11:06:28.496Z,9.67
2018-09-05T11:08:56.410Z,9.80
2018-09-05T11:11:24.358Z,11.03
2018-09-05T11:13:52.619Z,10.70
2018-09-05T11:16:20.672Z,11.63
2018-09-05T11:18:48.691Z,11.30
2018-09-05T11:21:16.991Z,11.83
2018-09-05T11:23:45.028Z,11.80
2018-09-05T11:26:13.079Z,11.43
2018-09-05T11:28:41.303Z,11.13
2018-09-05T11:31:09.290Z,12.07
2018-09-05T11:33:37.293Z,10.90
2018-09-05T11:36:05.535Z,10.13
2018-09-05T11:38:33.573Z,11.23
2018-09-05T11:41:01.693Z,9.33
2018-09-05T11:43:29.808Z,9.97
2018-09-05T11:45:57.926Z,10.17
2018-09-05T11:48:26.029Z,10.13
2018-09-05T11:50:54.090Z,9.83
2018-09-05T11:53:22.238Z,9.97
2018-09-05T11:55:50.277Z,10.33
2018-09-05T11:58:18.290Z,9.30
2018-09-05T12:00:46.333Z,9.17
2018-09-05T12:03:14.256Z,11.63
2018-09-05T12:05:42.130Z,8.70
2018-09-05T12:08:10.168Z,9.23
2018-09-05T12:10:38.306Z,11.47
2018-09-05T12:13:06.261Z,9.50
2018-09-05T12:15:34.260Z,10.57
2018-09-05T12:18:02.200Z,16.57
2018-09-05T12:20:30.484Z,14.23
2018-09-05T12:22:58.515Z,10.63
2018-09-05T12:25:26.588Z,11.77
2018-09-05T12:27:54.723Z,10.63
2018-09-05T12:30:22.802Z,10.83
2018-09-05T12:32:50.821Z,12.33
2018-09-05T12:35:18.826Z,10.60
2018-09-05T12:37:46.926Z,12.20
2018-09-05T12:40:14.980Z,11.40
2018-09-05T12:42:43.058Z,12.23
2018-09-05T12:45:11.055Z,9.70
2018-09-05T12:47:39.157Z,10.70
2018-09-05T12:50:07.392Z,10.53
2018-09-05T12:52:35.576Z,12.13
2018-09-05T12:55:03.681Z,9.40
2018-09-05T12:57:31.795Z,11.40
2018-09-05T12:59:59.757Z,10.03
2018-09-05T13:02:27.881Z,10.93
2018-09-05T13:04:55.879Z,10.63
2018-09-05T13:07:23.808Z,12.33
2018-09-05T13:09:51.833Z,10.80
2018-09-05T13:12:19.951Z,10.03
2018-09-05T13:14:48.122Z,14.47
2018-09-05T13:17:16.146Z,11.63
2018-09-05T13:19:44.166Z,8.63
2018-09-05T13:22:12.329Z,8.50
2018-09-05T13:24:40.384Z,10.03
2018-09-05T13:27:08.404Z,10.20
2018-09-05T13:29:36.487Z,11.40
2018-09-05T13:32:04.577Z,12.37
2018-09-05T13:34:32.531Z,11.67
2018-09-05T13:37:00.550Z,12.27
2018-09-05T13:39:28.601Z,12.30
2018-09-05T13:41:56.662Z,10.70
2018-09-05T13:44:24.784Z,10.67
2018-09-05T13:46:53.118Z,11.73
2018-09-05T13:49:21.850Z,12.93
2018-09-05T13:51:55.559Z,12.10
2018-09-05T13:54:23.703Z,12.53
2018-09-05T13:56:51.796Z,11.17
2018-09-05T13:59:19.938Z,12.03
2018-09-05T14:01:47.845Z,12.00
2018-09-05T14:04:15.986Z,15.80
2018-09-05T14:06:43.985Z,22.40
2018-09-05T14:09:12.746Z,13.70
2018-09-05T14:11:41.138Z,13.17
2018-09-05T14:14:09.684Z,13.67
2018-09-05T14:16:37.914Z,15.77
2018-09-05T14:19:06.031Z,14.20
2018-09-05T14:21:34.035Z,11.37
2018-09-05T14:24:02.111Z,11.80
2018-09-05T14:26:30.144Z,12.67
2018-09-05T14:28:58.225Z,13.13
2018-09-05T14:31:26.283Z,16.33
2018-09-05T14:33:54.293Z,12.17
2018-09-05T14:36:22.302Z,13.40
2018-09-05T14:38:51.224Z,21.00
2018-09-05T14:41:19.269Z,18.73
2018-09-05T14:43:47.361Z,20.67
2018-09-05T14:46:15.493Z,11.23
2018-09-05T14:48:43.792Z,13.87
2018-09-05T14:51:11.812Z,12.87
2018-09-05T14:53:39.856Z,12.20
2018-09-05T14:56:07.884Z,10.20
2018-09-05T14:58:36.030Z,11.20
2018-09-05T15:01:04.138Z,13.23
2018-09-05T15:03:32.215Z,10.73
2018-09-05T15:06:00.219Z,14.20
2018-09-05T15:08:28.357Z,10.70
2018-09-05T15:10:56.396Z,12.77
2018-09-05T15:13:24.391Z,13.33
2018-09-05T15:15:52.472Z,10.57
2018-09-05T15:18:20.420Z,13.30
2018-09-05T15:20:48.416Z,13.97
2018-09-05T15:23:16.386Z,12.60
2018-09-05T15:25:44.532Z,9.93
2018-09-05T15:28:12.822Z,11.40
2018-09-05T15:30:40.756Z,10.77
2018-09-05T15:33:09.254Z,13.67
2018-09-05T15:35:37.177Z,11.17
2018-09-05T15:38:05.226Z,12.33
2018-09-05T15:40:38.956Z,13.40
2018-09-05T15:43:07.060Z,11.63
2018-09-05T15:45:35.088Z,10.30
2018-09-05T15:48:03.009Z,11.47
2018-09-05T15:50:31.185Z,12.43
2018-09-05T15:52:59.227Z,10.63
2018-09-05T15:55:27.268Z,10.17
2018-09-05T15:57:55.373Z,12.57
2018-09-05T16:00:23.398Z,9.73
2018-09-05T16:02:51.548Z,10.53
2018-09-05T16:05:19.631Z,12.47
2018-09-05T16:07:47.849Z,11.23
2018-09-05T16:10:15.777Z,12.53
2018-09-05T16:12:43.823Z,10.23
2018-09-05T16:15:11.942Z,10.20
2018-09-05T16:17:39.842Z,10.43
2018-09-05T16:20:08.168Z,10.77
2018-09-05T16:22:36.108Z,10.43
2018-09-05T16:25:04.170Z,12.10
2018-09-05T16:27:32.242Z,10.10
2018-09-05T16:30:00.219Z,11.53
2018-09-05T16:32:28.261Z,11.77
2018-09-05T16:34:56.308Z,9.33
2018-09-05T16:37:24.256Z,10.07
2018-09-05T16:39:52.180Z,10.90
2018-09-05T16:42:20.155Z,11.17
2018-09-05T16:44:48.213Z,11.83
2018-09-05T16:47:16.351Z,11.03
2018-09-05T16:49:44.578Z,10.57
2018-09-05T16:52:12.592Z,10.47
2018-09-05T16:54:40.539Z,9.70
2018-09-05T16:57:08.696Z,9.53
2018-09-05T16:59:36.668Z,9.53
2018-09-05T17:02:04.627Z,9.87
2018-09-05T17:04:37.082Z,8.90
2018-09-05T17:07:05.008Z,8.00
2018-09-05T17:09:33.047Z,9.10
2018-09-05T17:12:00.937Z,9.47
2018-09-05T17:14:28.934Z,10.70
2018-09-05T17:16:56.941Z,9.57
2018-09-05T17:19:24.951Z,9.23
2018-09-05T17:21:52.892Z,11.10
2018-09-05T17:24:20.719Z,8.70
2018-09-05T17:26:48.645Z,10.07
2018-09-05T17:29:16.573Z,10.00
2018-09-05T17:31:44.550Z,9.67
2018-09-05T17:34:12.577Z,8.77
2018-09-05T17:36:40.458Z,9.20
2018-09-05T17:39:10.087Z,10.53
2018-09-05T17:41:40.658Z,9.47
2018-09-05T17:44:09.302Z,9.37
2018-09-05T17:46:37.248Z,9.07
2018-09-05T17:49:05.794Z,9.53
2018-09-05T17:51:33.822Z,9.70
2018-09-05T17:54:01.760Z,8.97
2018-09-05T17:56:29.931Z,9.37
2018-09-05T17:58:57.829Z,9.00
2018-09-05T18:01:26.136Z,11.67
2018-09-05T18:03:54.025Z,9.43
2018-09-05T18:06:22.490Z,9.83
2018-09-05T18:08:50.733Z,10.17
2018-09-05T18:11:18.790Z,10.10
2018-09-05T18:13:46.799Z,9.90
2018-09-05T18:16:14.793Z,9.67
2018-09-05T18:18:43.063Z,9.40
2018-09-05T18:21:11.200Z,9.20
2018-09-05T18:23:39.200Z,10.23
2018-09-05T18:26:07.953Z,10.40
2018-09-05T18:28:35.893Z,9.93
2018-09-05T18:31:03.986Z,10.03
2018-09-05T18:33:31.966Z,10.60
2018-09-05T18:35:59.990Z,10.80
2018-09-05T18:38:27.852Z,11.53
2018-09-05T18:40:55.843Z,11.90
2018-09-05T18:43:23.872Z,10.97
2018-09-05T18:45:51.849Z,11.30
2018-09-05T18:48:19.751Z,11.30
2018-09-05T18:50:47.633Z,9.90
2018-09-05T18:53:15.620Z,10.80
2018-09-05T18:55:44.577Z,12.53
2018-09-05T18:58:12.593Z,11.13
2018-09-05T19:00:40.511Z,10.37
2018-09-05T19:03:09.340Z,11.87
2018-09-05T19:05:37.632Z,10.47
2018-09-05T19:08:06.354Z,10.37
2018-09-05T19:10:34.309Z,10.87
2018-09-05T19:13:02.271Z,11.73
2018-09-05T19:15:30.251Z,13.83
2018-09-05T19:17:58.241Z,13.27
2018-09-05T19:20:26.155Z,13.27
2018-09-05T19:22:54.076Z,12.87
2018-09-05T19:25:22.044Z,11.43
2018-09-05T19:27:50.091Z,11.57
2018-09-05T19:30:18.051Z,10.97
2018-09-05T19:32:46.118Z,14.20
2018-09-05T19:35:14.130Z,12.37
2018-09-05T19:37:42.168Z,12.30
2018-09-05T19:40:10.111Z,12.40
2018-09-05T19:42:38.057Z,12.43
2018-09-05T19:45:06.745Z,11.77
2018-09-05T19:47:34.822Z,14.10
2018-09-05T19:50:03.284Z,14.23
2018-09-05T19:52:31.198Z,13.57
2018-09-05T19:54:59.152Z,12.57
2018-09-05T19:57:27.144Z,14.00
2018-09-05T19:59:55.090Z,13.23
2018-09-05T20:02:23.334Z,11.90
2018-09-05T20:04:51.414Z,13.30
2018-09-05T20:07:19.373Z,13.07
2018-09-05T20:09:47.446Z,13.63
2018-09-05T20:12:15.355Z,13.23
2018-09-05T20:14:43.266Z,12.90
2018-09-05T20:17:11.985Z,13.50
2018-09-05T20:19:39.949Z,14.60
2018-09-05T20:22:10.028Z,14.90
2018-09-05T20:24:38.088Z,11.93
2018-09-05T20:27:06.755Z,12.27
2018-09-05T20:29:34.877Z,12.27
2018-09-05T20:32:02.919Z,14.77
2018-09-05T20:34:30.808Z,12.07
2018-09-05T20:36:58.887Z,12.60
2018-09-05T20:39:26.874Z,12.37
2018-09-05T20:41:54.865Z,13.53
2018-09-05T20:44:23.147Z,13.60
2018-09-05T20:46:51.076Z,13.67
2018-09-05T20:49:18.993Z,12.07
2018-09-05T20:51:46.837Z,11.60
2018-09-05T20:54:14.932Z,13.80
2018-09-05T20:56:42.916Z,13.57
2018-09-05T20:59:11.325Z,12.67
2018-09-05T21:01:39.390Z,11.83
2018-09-05T21:04:07.261Z,13.00
2018-09-05T21:06:35.332Z,12.33
2018-09-05T21:09:04.148Z,12.67
2018-09-05T21:11:32.206Z,12.83
2018-09-05T21:14:00.318Z,12.60
2018-09-05T21:16:28.322Z,11.47
2018-09-05T21:18:56.329Z,12.70
2018-09-05T21:21:24.505Z,13.50
2018-09-05T21:23:52.547Z,11.27
2018-09-05T21:26:20.626Z,12.50
2018-09-05T21:28:48.645Z,12.50
2018-09-05T21:31:16.727Z,12.47
2018-09-05T21:33:44.596Z,12.57
2018-09-05T21:36:12.558Z,12.67
2018-09-05T21:38:40.527Z,11.73
2018-09-05T21:41:08.437Z,13.08
2018-09-05T21:43:36.428Z,13.50
2018-09-05T21:46:04.429Z,13.75
2018-09-05T21:48:32.392Z,12.55
2018-09-05T21:51:00.411Z,13.22
2018-09-05T21:53:28.338Z,13.00
2018-09-05T21:55:56.379Z,12.68
2018-09-05T21:58:24.270Z,13.50
2018-09-05T22:00:52.207Z,12.82
2018-09-05T22:03:20.577Z,13.00
2018-09-05T22:05:48.595Z,12.73
2018-09-05T22:08:16.533Z,12.23
2018-09-05T22:10:44.559Z,12.70
2018-09-05T22:13:12.532Z,12.70
2018-09-05T22:15:45.361Z,12.00
2018-09-05T22:18:13.500Z,12.65
2018-09-05T22:20:41.568Z,13.32
2018-09-05T22:23:09.750Z,13.13
2018-09-05T22:25:37.710Z,13.32
2018-09-05T22:28:05.839Z,13.80
2018-09-05T22:30:33.933Z,13.30
2018-09-05T22:33:02.821Z,13.15
2018-09-05T22:35:30.790Z,13.15
2018-09-05T22:37:58.977Z,14.00
2018-09-05T22:40:29.392Z,13.70
2018-09-05T22:43:09.422Z,14.15
2018-09-05T22:45:48.556Z,13.13
2018-09-05T22:48:36.451Z,13.80
2018-09-05T22:51:20.749Z,14.00
2018-09-05T22:54:11.320Z,14.25
2018-09-05T22:56:59.124Z,14.33
2018-09-05T22:59:38.968Z,16.67
2018-09-05T23:03:48.579Z,13.40
2018-09-05T23:08:40.364Z,13.32
2018-09-05T23:11:54.830Z,12.82
2018-09-05T23:14:34.148Z,12.60
2018-09-05T23:17:13.177Z,13.10
2018-09-05T23:19:53.756Z,12.07
2018-09-05T23:22:22.067Z,12.93
2018-09-05T23:24:50.030Z,14.10
2018-09-05T23:27:17.971Z,12.58
2018-09-05T23:29:45.903Z,12.25
2018-09-05T23:32:13.740Z,12.20
2018-09-05T23:34:41.817Z,11.95
2018-09-05T23:37:09.900Z,12.20
2018-09-05T23:39:37.743Z,13.58
2018-09-05T23:42:05.810Z,12.50
2018-09-05T23:44:33.802Z,12.13
2018-09-05T23:47:02.037Z,13.98
2018-09-05T23:49:30.010Z,13.40
2018-09-05T23:51:57.960Z,11.93
2018-09-05T23:54:25.896Z,12.55
2018-09-05T23:56:53.865Z,12.50
2018-09-05T23:59:21.830Z,13.32
